METAR Data
IDs: Format: Raw Decoded Include TAF

Data at: 1823 UTC 21 Sep 2018

KE11 211815Z AUTO 01017G23KT 10SM BKN022 BKN035 OVC090 24/19 A3007 RMK AO2 T02360185
KE11 211755Z AUTO 03012G19KT 10SM BKN022 BKN029 OVC080 24/18 A3007 RMK AO2 T02390184 10240 20193
KE11 211735Z AUTO 02013G19KT 10SM SCT024 BKN029 OVC080 24/18 A3007 RMK AO2 T02380183
KE11 211715Z AUTO 01013G18KT 10SM SCT024 SCT029 OVC080 24/18 A3007 RMK AO2 T02400181
KE11 211655Z AUTO 01012G17KT 10SM SCT022 BKN044 OVC080 24/18 A3007 RMK AO2 T02360179
KE11 211635Z AUTO 36012G17KT 10SM SCT018 BKN039 OVC080 23/19 A3006 RMK AO2 T02330190
KE11 211615Z AUTO 01012KT 10SM SCT018 BKN023 OVC080 23/20 A3005 RMK AO2 T02290197
KE11 211555Z AUTO 36012G15KT 10SM OVC019 22/19 A3005 RMK AO2 T02240194
KE11 211535Z AUTO 35010KT 10SM BKN016 23/20 A3004 RMK AO2 T02270195
KE11 211515Z AUTO 36011KT 10SM BKN011 22/20 A3004 RMK AO2 T02150198
KE11 211455Z AUTO 36011G15KT 10SM OVC009 21/20 A3003 RMK AO2 LTG DSNT E T02130203
KE11 211435Z AUTO 35009G14KT 10SM OVC007 21/21 A3002 RMK AO2 T02090209
KE11 211415Z AUTO 34006KT 10SM BKN007 OVC070 21/21 A3002 RMK AO2 LTG DSNT E AND SE T02050205
KE11 211355Z AUTO 34005KT 10SM BKN009 BKN014 BKN070 20/20 A3001 RMK AO2 T02000200
KE11 211335Z AUTO 35006KT 10SM SCT009 OVC070 20/20 A3000 RMK AO2 T02000200
KE11 211315Z AUTO 35005KT 10SM SCT032 SCT041 OVC070 20/20 A2999 RMK AO2 T01960196
KE11 211255Z AUTO 34004KT 10SM SCT011 OVC042 19/19 A2998 RMK AO2 T01930193
KE11 211235Z AUTO 35004KT 10SM SCT011 SCT042 OVC055 19/19 A2998 RMK AO2 LTG DSNT SE T01930193
KE11 211215Z AUTO 34006KT 10SM SCT055 BKN065 19/19 A2997 RMK AO2 LTG DSNT SE T01930193
KE11 211155Z AUTO 33005KT 7SM SCT002 SCT008 SCT055 20/20 A2997 RMK AO2 70024 T01950195 10209 20195
KE11 211135Z AUTO 33006KT 7SM SCT070 20/20 A2996 RMK AO2 T01970197
KE11 211115Z AUTO 34005KT 7SM CLR 20/20 A2996 RMK AO2 T01960196
KE11 211055Z AUTO 00000KT 10SM CLR 20/20 A2994 RMK AO2 LTG DSNT SE T01960196
KE11 211035Z AUTO 00000KT 10SM CLR 20/20 A2994 RMK AO2 LTG DSNT SE T01970197
KE11 211015Z AUTO 35003KT 10SM CLR 20/20 A2994 RMK AO2 LTG DSNT E AND SE T01980198
KE11 210955Z AUTO 35004KT 10SM SCT013 SCT095 20/20 A2994 RMK AO2 T02000200
KE11 210935Z AUTO 35004KT 10SM SCT013 BKN095 21/21 A2994 RMK AO2 LTG DSNT E T02050205
KE11 210915Z AUTO 34003KT 10SM OVC095 21/21 A2994 RMK AO2 LTG DSNT E AND SE T02060206
KE11 210855Z AUTO 00000KT 10SM SCT085 OVC100 21/21 A2994 RMK AO2 T02070207
KE11 210835Z AUTO 00000KT 10SM SCT060 SCT085 OVC110 21/21 A2994 RMK AO2 LTG DSNT SE T02070207
KE11 210815Z AUTO 00000KT 10SM SCT065 BKN100 21/21 A2994 RMK AO2 LTG DSNT E AND SE T02070207
KE11 210755Z AUTO 00000KT 10SM SCT034 BKN049 OVC100 21/21 A2994 RMK AO2 LTG DSNT SE T02070207
KE11 210735Z AUTO 22004KT 10SM SCT011 SCT017 OVC034 21/21 A2995 RMK AO2 LTG DSNT SE AND S T02070207
KE11 210715Z AUTO 00000KT 10SM OVC011 21/21 A2995 RMK AO2 LTG DSNT SE AND S T02070207
KE11 210655Z AUTO 00000KT 10SM OVC011 21/21 A2996 RMK AO2 LTG DSNT SE AND S T02070207
KE11 210635Z AUTO 26003KT 10SM OVC011 21/21 A2996 RMK AO2 LTG DSNT SE AND S T02060206
KE11 210615Z AUTO 00000KT 10SM OVC011 21/21 A2996 RMK AO2 LTG DSNT SE T02070207
KE11 210555Z AUTO 00000KT 10SM -DZ OVC011 21/21 A2996 RMK AO2 LTG DSNT SE 60024 T02070207 10257 20204
KE11 210535Z AUTO 25003KT 10SM DZ BKN013 BKN065 OVC120 21/21 A2996 RMK AO2 LTG DSNT NE THRU S T02060206
KE11 210515Z AUTO 00000KT 10SM RA SCT013 SCT018 OVC120 21/21 A2996 RMK AO2 LTG DSNT SE T02060206
KE11 210455Z AUTO 19004KT 10SM OVC016 21/21 A2996 RMK AO2 T02060206 402830187
KE11 210435Z AUTO 21003KT 10SM SCT019 SCT047 SCT075 21/21 A2997 RMK AO2 LTG DSNT SE AND S T02060206
KE11 210415Z AUTO 24004KT 10SM BKN012 SCT023 BKN049 21/21 A2997 RMK AO2 LTG DSNT SE AND S T02060206
KE11 210355Z AUTO 23004KT 10SM DZ BKN012 OVC023 21/21 A2997 RMK AO2 LTG DSNT S P0024 T02070207
KE11 210335Z AUTO 24005KT 10SM -RA SCT017 BKN023 OVC034 21/21 A2997 RMK AO2 LTG DSNT S P0023 T02050205
KE11 210315Z AUTO 26011KT 10SM RA SCT026 BKN034 OVC110 22/19 A2996 RMK AO2 LTG DSNT N S AND NW T02170191
KE11 210250Z AUTO 18005KT 10SM SCT044 SCT060 BKN110 23/18 A2994 RMK AO2 LTG DSNT S T02320175
KE11 210235Z AUTO 18005KT 10SM SCT060 BKN100 23/18 A2994 RMK AO2 LTG DSNT S T02340175
KE11 210215Z AUTO 17005KT 10SM BKN100 24/18 A2993 RMK AO2 T02350175
KE11 210155Z AUTO 17006KT 10SM OVC100 24/18 A2992 RMK AO2 T02400175
KE11 210135Z AUTO 17005KT 10SM BKN100 24/18 A2991 RMK AO2 T02400175
KE11 210115Z AUTO 18005KT 10SM BKN110 24/18 A2991 RMK AO2 T02430175
KE11 210055Z AUTO 18006KT 10SM BKN110 25/17 A2990 RMK AO2 T02470174
KE11 210035Z AUTO 18007KT 10SM BKN110 25/18 A2990 RMK AO2 LTG DSNT SW T02500175
KE11 210015Z AUTO 19009KT 10SM SCT110 25/17 A2989 RMK AO2 T02520173
KE11 202355Z AUTO 20011G16KT 10SM SCT042 SCT050 26/17 A2989 RMK AO2 T02590171 10283 20255
KE11 202335Z AUTO 20011G17KT 10SM SCT042 SCT048 SCT060 26/17 A2989 RMK AO2 T02630167
KE11 202315Z AUTO 20011G16KT 10SM SCT048 SCT060 SCT070 27/17 A2988 RMK AO2 T02650167
KE11 202255Z AUTO 19011G17KT 10SM SCT050 SCT065 28/17 A2987 RMK AO2 LTG DSNT W T02820165
KE11 202235Z AUTO 18011G16KT 10SM SCT045 SCT060 BKN085 27/16 A2987 RMK AO2 T02690161
KE11 202215Z AUTO 20010G17KT 10SM SCT047 BKN050 OVC085 27/16 A2988 RMK AO2 T02730161
KE11 202155Z AUTO 18010KT 10SM SCT044 BKN050 OVC085 27/17 A2988 RMK AO2 T02660166
KE11 202135Z AUTO 18012G18KT 10SM SCT046 BKN070 OVC095 27/16 A2988 RMK AO2 T02740162
KE11 202115Z AUTO 19011G18KT 10SM SCT070 OVC095 28/16 A2989 RMK AO2 T02800160
KE11 202055Z AUTO 18010G17KT 10SM OVC095 27/16 A2989 RMK AO2 T02690161
KE11 202035Z AUTO 19012G16KT 10SM SCT039 SCT060 OVC095 28/17 A2990 RMK AO2 T02760167
KE11 202015Z AUTO 20010G17KT 10SM OVC060 28/16 A2991 RMK AO2 T02760164
KE11 201955Z AUTO 19009G14KT 10SM BKN075 BKN085 27/16 A2992 RMK AO2 T02690160
KE11 201935Z AUTO 22007G15KT 10SM SCT037 SCT055 BKN085 26/16 A2993 RMK AO2 LTG DSNT W T02610164
KE11 201915Z AUTO 22016G20KT 10SM -RA SCT036 BKN090 OVC120 26/17 A2994 RMK AO2 T02560168
KE11 201855Z AUTO 21014G20KT 10SM BKN036 BKN065 BKN090 27/17 A2995 RMK AO2 T02680169
KE11 201835Z AUTO 19015G19KT 10SM SCT036 BKN045 BKN055 26/17 A2995 RMK AO2 T02640171
KE11 201815Z AUTO 17013G21KT 10SM SCT036 BKN044 OVC060 27/17 A2996 RMK AO2 T02680171
KE11 201755Z AUTO 20013G20KT 10SM BKN036 BKN049 BKN060 27/17 A2996 RMK AO2 T02670171 10278 20196
KE11 201735Z AUTO 19012G20KT 10SM SCT036 BKN044 BKN050 27/17 A2997 RMK AO2 T02690168
KE11 201715Z AUTO 17014G22KT 10SM SCT034 BKN044 BKN050 27/17 A2998 RMK AO2 T02720171
KE11 201655Z AUTO 19012G23KT 10SM BKN032 BKN038 BKN044 27/17 A2998 RMK AO2 T02690173
KE11 201635Z AUTO 17015G23KT 10SM SCT030 BKN037 26/18 A2998 RMK AO2 T02600175
KE11 201615Z AUTO 17011G19KT 10SM SCT027 SCT033 SCT039 25/18 A2999 RMK AO2 T02470176
KE11 201555Z AUTO 17012G21KT 10SM SCT021 BKN030 25/18 A2999 RMK AO2 T02500178
KE11 201535Z AUTO 16015G23KT 10SM BKN021 OVC028 25/18 A2999 RMK AO2 T02470181
KE11 201515Z AUTO 17013G20KT 10SM BKN019 BKN024 24/18 A2999 RMK AO2 T02360184
KE11 201455Z AUTO 18014G21KT 10SM BKN014 BKN020 23/18 A2998 RMK AO2 T02250181
KE11 201435Z AUTO 17012G19KT 10SM OVC014 22/19 A2998 RMK AO2 T02220186
KE11 201415Z AUTO 18015G21KT 10SM OVC012 22/20 A2998 RMK AO2 T02150197
KE11 201355Z AUTO 17014G20KT 10SM OVC010 21/20 A2997 RMK AO2 T02120201
KE11 201335Z AUTO 18014G19KT 10SM OVC010 21/21 A2997 RMK AO2 T02060206
KE11 201315Z AUTO 18009G14KT 10SM BKN010 20/20 A2997 RMK AO2 T02010201
KE11 201255Z AUTO 17007KT 10SM SCT010 20/20 A2996 RMK AO2 T01970197
KE11 201235Z AUTO 17008KT 10SM CLR 20/20 A2996 RMK AO2 T01990199
KE11 201215Z AUTO 16007G14KT 10SM CLR 20/20 A2996 RMK AO2 T01990199
KE11 201155Z AUTO 16009G14KT 10SM CLR 20/20 A2996 RMK AO2 T01980198 10204 20187
KE11 201135Z AUTO 17008KT 10SM CLR 20/20 A2996 RMK AO2 T01960196
KE11 201115Z AUTO 17008KT 10SM SCT120 20/20 A2995 RMK AO2 T01950195
KE11 201055Z AUTO 17006KT 10SM BKN120 19/19 A2996 RMK AO2 T01910191
KE11 201035Z AUTO 16006KT 10SM SCT120 19/19 A2995 RMK AO2 T01910191
KE11 201015Z AUTO 16007KT 10SM CLR 19/18 A2994 RMK AO2 T01910180
KE11 200955Z AUTO 17007KT 10SM CLR 19/17 A2995 RMK AO2 T01910172
KE11 200935Z AUTO 17006KT 10SM CLR 19/17 A2996 RMK AO2 T01900168
KE11 200915Z AUTO 16005KT 10SM CLR 19/16 A2996 RMK AO2 T01900163
KE11 200855Z AUTO 17006KT 10SM CLR 19/16 A2996 RMK AO2 T01890159
KE11 200835Z AUTO 16006KT 10SM CLR 19/16 A2996 RMK AO2 T01900156
KE11 200815Z AUTO 17005KT 10SM CLR 19/16 A2996 RMK AO2 T01910155
KE11 200755Z AUTO 16007KT 10SM CLR 19/15 A2996 RMK AO2 T01910152
KE11 200735Z AUTO 15008KT 10SM CLR 19/15 A2996 RMK AO2 T01910150
KE11 200715Z AUTO 16005KT 10SM CLR 19/15 A2997 RMK AO2 T01900146
KE11 200655Z AUTO 16006KT 10SM CLR 19/14 A2996 RMK AO2 T01880140
KE11 200635Z AUTO 16005KT 10SM CLR 19/14 A2996 RMK AO2 T01910136